This is the latest recevied weather packets stored in our database for station/object SQ7ACP-3. If no packets are shown the sender has not sent any weather packets the latest 1 day(s).
| Time | Temp. | Humidity | Pressure | Rain* | Wind** | Luminosity | Snow |
|---|---|---|---|---|---|---|---|
| 1778024627 | 11.67° C | 65% | 1005.2 hPa | 0 mm | 0 m/s | - | - |
| 1778024016 | 12.22° C | 63% | 1005.3 hPa | 0 mm | 0.45 m/s, 218° | - | - |
| 1778023415 | 12.78° C | 62% | 1005.2 hPa | 0 mm | 0 m/s | - | - |
| 1778022803 | 13.33° C | 59% | 1005.1 hPa | 0 mm | 0 m/s | - | - |
| 1778022203 | 13.33° C | 57% | 1005.2 hPa | 0 mm | 0 m/s | - | - |
| 1778021592 | 13.33° C | 57% | 1005.3 hPa | 0 mm | 0 m/s | - | - |
| 1778020990 | 13.33° C | 55% | 1005.3 hPa | 0 mm | 0 m/s | - | - |
| 1778020378 | 13.33° C | 54% | 1005.3 hPa | 0 mm | 0 m/s | - | - |
| 1778019765 | 13.89° C | 54% | 1005.2 hPa | 0 mm | 0 m/s | - | - |
| 1778019166 | 14.44° C | 51% | 1005.2 hPa | 0 mm | 0 m/s | - | - |
| 1778018553 | 15.56° C | 50% | 1005.2 hPa | 0 mm | 0.45 m/s, 225° | - | - |
| 1778017953 | 16.11° C | 44% | 1005.2 hPa | 0 mm | 0 m/s | - | - |
| 1778017353 | 16.11° C | 43% | 1005.3 hPa | 0 mm | 0 m/s | - | - |
| 1778016743 | 16.11° C | 43% | 1005.3 hPa | 0 mm | 0 m/s | - | - |
| 1778016128 | 16.11° C | 43% | 1005.2 hPa | 0 mm | 0 m/s | - | - |
| 1778015528 | 16.67° C | 42% | 1005.3 hPa | 0 mm | 0 m/s | - | - |
| 1778014915 | 16.67° C | 43% | 1005.1 hPa | 0 mm | 0 m/s | - | - |
| 1778014315 | 16.67° C | 46% | 1005.1 hPa | 0 mm | 0.45 m/s, 181° | - | - |
| 1778013703 | 16.67° C | 43% | 1004.9 hPa | 0 mm | 0 m/s | - | - |
| 1778013096 | 16.67° C | 43% | 1005 hPa | 0 mm | 0 m/s | - | - |
| 1778012490 | 16.67° C | 45% | 1004.9 hPa | 0 mm | 0 m/s | - | - |
| 1778011883 | 17.78° C | 43% | 1004.8 hPa | 0 mm | 0 m/s | - | - |
| 1778011267 | 18.33° C | 39% | 1004.7 hPa | 0 mm | 0 m/s | - | - |
| 1778010041 | 18.89° C | 36% | 1004.7 hPa | 0 mm | 0 m/s | - | - |
| 1778009428 | 20° C | 32% | 1004.8 hPa | 0 mm | 0.45 m/s, 182° | - | - |
* Rain latest hour (hover to see other rain measurements)
** Current wind speed in m/s (hover to see current wind gust speed)